Time;durP1;ratioP1;P1;durP2;ratioP2;P2;SDS_P1;SDS_P2;PMS_P1;PMS_P2;Temp;Humidity;BMP_temperature;BMP_pressure;BME280_temperature;BME280_humidity;BME280_pressure;Samples;Min_cycle;Max_cycle;Signal;HPM_P1;HPM_P2
2020/12/20 00:00:33;;;;;;;15.47;12.63;;;6.70;99.90;;;;;;4972592;28;20203;-77
2020/12/20 00:03:00;;;;;;;19.07;17.17;;;6.80;99.90;;;;;;4968752;28;20289;-77
2020/12/20 00:05:27;;;;;;;14.43;12.70;;;6.80;99.90;;;;;;4987681;28;20197;-77
2020/12/20 00:07:54;;;;;;;16.10;13.43;;;6.70;99.90;;;;;;4976927;28;20308;-77
2020/12/20 00:10:22;;;;;;;14.13;11.03;;;6.70;99.90;;;;;;4975741;28;20284;-78
2020/12/20 00:12:49;;;;;;;12.13;9.97;;;6.70;99.90;;;;;;4994010;28;20222;-78
2020/12/20 00:15:16;;;;;;;14.20;12.37;;;6.70;99.90;;;;;;4969973;28;20574;-77
2020/12/20 00:17:47;;;;;;;14.10;10.47;;;6.80;99.90;;;;;;4970709;28;20242;-77
2020/12/20 00:20:13;;;;;;;14.33;11.90;;;6.80;99.90;;;;;;4988832;28;20210;-77
2020/12/20 00:22:39;;;;;;;17.43;15.83;;;6.80;99.90;;;;;;4979941;28;20309;-77
2020/12/20 00:25:06;;;;;;;15.07;10.70;;;6.70;99.90;;;;;;4974205;28;20284;-77
2020/12/20 00:27:32;;;;;;;16.33;14.20;;;6.70;99.90;;;;;;4970140;28;20374;-78
2020/12/20 00:29:59;;;;;;;14.00;11.67;;;6.70;99.90;;;;;;4972252;28;20227;-77
2020/12/20 00:32:25;;;;;;;17.00;14.00;;;6.70;99.90;;;;;;4989994;28;20285;-78
2020/12/20 00:34:52;;;;;;;17.27;14.77;;;6.60;99.90;;;;;;4983509;28;20285;-77
2020/12/20 00:37:18;;;;;;;15.23;12.07;;;6.60;99.90;;;;;;4975487;28;20310;-77
2020/12/20 00:39:44;;;;;;;13.93;11.70;;;6.60;99.90;;;;;;4975776;28;20238;-77
2020/12/20 00:42:11;;;;;;;13.83;11.57;;;6.60;99.90;;;;;;4971925;28;20328;-77
2020/12/20 00:44:37;;;;;;;14.60;10.60;;;6.60;99.90;;;;;;4983754;28;20199;-78
2020/12/20 00:47:05;;;;;;;16.37;13.07;;;6.50;99.90;;;;;;4969758;28;20589;-77
2020/12/20 00:49:33;;;;;;;14.87;13.37;;;6.50;99.90;;;;;;4990316;28;20198;-77
2020/12/20 00:52:02;;;;;;;19.33;17.03;;;6.50;99.90;;;;;;4979353;28;20197;-77
2020/12/20 00:54:29;;;;;;;15.50;11.20;;;6.50;99.90;;;;;;4973246;28;20194;-77
2020/12/20 00:56:55;;;;;;;15.83;12.77;;;6.40;99.90;;;;;;4982314;28;20288;-77
2020/12/20 00:59:22;;;;;;;16.43;14.67;;;6.50;99.90;;;;;;4976189;28;20198;-77
2020/12/20 01:01:49;;;;;;;18.67;16.87;;;6.50;99.90;;;;;;4974957;28;20221;-78
2020/12/20 01:04:17;;;;;;;16.07;12.37;;;6.40;99.90;;;;;;4972435;28;20223;-77
2020/12/20 01:06:44;;;;;;;19.90;14.60;;;6.40;99.90;;;;;;4988284;28;20292;-77
2020/12/20 01:09:20;;;;;;;22.30;20.20;;;6.40;99.90;;;;;;4986085;28;20205;-76
2020/12/20 01:11:48;;;;;;;14.70;12.20;;;6.40;99.90;;;;;;4978970;28;20197;-77
2020/12/20 01:14:14;;;;;;;17.73;15.80;;;6.40;99.90;;;;;;4982004;28;20670;-77
2020/12/20 01:16:49;;;;;;;15.00;11.07;;;6.40;99.90;;;;;;4978569;28;20193;-78
2020/12/20 01:19:15;;;;;;;15.00;10.80;;;6.40;99.90;;;;;;4971951;28;20537;-77
2020/12/20 01:21:43;;;;;;;13.07;10.93;;;6.40;99.90;;;;;;4970572;28;20222;-77
2020/12/20 01:24:09;;;;;;;14.80;11.90;;;6.40;99.90;;;;;;4968392;28;20191;-77
2020/12/20 01:26:35;;;;;;;14.33;10.97;;;6.40;99.90;;;;;;4975245;28;20209;-77
2020/12/20 01:29:02;;;;;;;20.43;18.37;;;6.40;99.90;;;;;;4985552;28;20273;-77
2020/12/20 01:31:29;;;;;;;16.70;12.63;;;6.40;99.90;;;;;;4971714;28;20297;-77
2020/12/20 01:34:11;;;;;;;17.37;12.60;;;6.40;99.90;;;;;;4981897;28;20197;-77
2020/12/20 01:36:38;;;;;;;17.50;15.70;;;6.40;99.90;;;;;;4977291;28;20588;-77
2020/12/20 01:39:05;;;;;;;14.93;13.40;;;6.40;99.90;;;;;;4977049;28;20229;-77
2020/12/20 01:41:31;;;;;;;18.23;16.33;;;6.40;99.90;;;;;;4967073;28;20200;-77
2020/12/20 01:43:59;;;;;;;13.53;11.40;;;6.40;99.90;;;;;;4969806;28;20191;-77
2020/12/20 01:46:43;;;;;;;15.97;13.67;;;6.30;99.90;;;;;;4988354;28;20229;-78
2020/12/20 01:49:13;;;;;;;20.67;18.77;;;6.40;99.90;;;;;;4986791;28;20583;-77
2020/12/20 01:51:40;;;;;;;18.83;16.83;;;6.30;99.90;;;;;;4973885;28;20197;-77
2020/12/20 01:54:11;;;;;;;14.20;11.40;;;6.30;99.90;;;;;;4967647;28;20201;-78
2020/12/20 01:56:44;;;;;;;14.47;11.30;;;6.40;99.90;;;;;;4989267;28;20199;-77
2020/12/20 01:59:19;;;;;;;12.67;10.53;;;6.40;99.90;;;;;;4983392;28;20194;-77
2020/12/20 02:01:53;;;;;;;16.10;10.87;;;6.40;99.90;;;;;;4984676;28;20291;-77
2020/12/20 02:04:28;;;;;;;15.77;12.33;;;6.40;99.90;;;;;;4970998;28;20198;-77
2020/12/20 02:06:56;;;;;;;15.77;11.17;;;6.40;99.90;;;;;;4981195;28;20285;-77
2020/12/20 02:09:26;;;;;;;17.20;11.67;;;6.40;99.90;;;;;;4973701;28;20205;-77
2020/12/20 02:11:53;;;;;;;13.47;10.23;;;6.40;99.90;;;;;;4970799;28;20242;-77
2020/12/20 02:14:22;;;;;;;12.93;9.50;;;6.40;99.90;;;;;;4988263;28;20208;-77
2020/12/20 02:17:00;;;;;;;13.00;9.53;;;6.40;99.90;;;;;;4968729;28;20754;-77
2020/12/20 02:19:28;;;;;;;11.57;9.40;;;6.40;99.90;;;;;;4984542;28;20258;-77
2020/12/20 02:22:24;;;;;;;12.00;9.33;;;6.40;99.90;;;;;;4965700;28;20221;-77
2020/12/20 02:24:53;;;;;;;15.13;10.60;;;6.30;99.90;;;;;;4984141;28;20579;-77
2020/12/20 02:27:47;;;;;;;12.80;10.03;;;6.30;99.90;;;;;;4972357;28;20225;-77
2020/12/20 02:30:14;;;;;;;14.20;10.83;;;6.30;99.90;;;;;;4980400;28;20225;-77
2020/12/20 02:32:40;;;;;;;14.90;10.60;;;6.30;99.90;;;;;;4974382;28;20874;-77
2020/12/20 02:35:06;;;;;;;14.77;11.57;;;6.30;99.90;;;;;;4967218;28;20199;-78
2020/12/20 02:37:34;;;;;;;14.10;10.23;;;6.40;99.90;;;;;;4965040;28;20218;-78
2020/12/20 02:40:02;;;;;;;10.57;9.00;;;6.30;99.90;;;;;;4988407;28;20205;-77
2020/12/20 02:42:36;;;;;;;15.57;11.00;;;6.30;99.90;;;;;;4968530;28;20210;-77
2020/12/20 02:45:03;;;;;;;15.20;10.93;;;6.30;99.90;;;;;;4985194;28;20202;-78
2020/12/20 02:47:31;;;;;;;13.53;9.90;;;6.30;99.90;;;;;;4977558;28;20225;-77
2020/12/20 02:49:57;;;;;;;13.50;10.60;;;6.20;99.90;;;;;;4968167;28;20186;-77
2020/12/20 02:52:35;;;;;;;13.93;9.80;;;6.30;99.90;;;;;;4964761;28;20206;-77
2020/12/20 02:55:02;;;;;;;14.17;10.70;;;6.20;99.90;;;;;;4992005;28;20252;-77
2020/12/20 02:57:37;;;;;;;13.87;11.03;;;6.20;99.90;;;;;;4974097;28;20305;-77
2020/12/20 03:00:20;;;;;;;15.37;11.33;;;6.20;99.90;;;;;;4986773;28;20653;-77
2020/12/20 03:02:46;;;;;;;14.23;10.90;;;6.20;99.90;;;;;;4981082;28;20245;-77
2020/12/20 03:05:13;;;;;;;14.93;10.77;;;6.20;99.90;;;;;;4969386;28;20340;-76
2020/12/20 03:07:40;;;;;;;14.17;11.47;;;6.20;99.90;;;;;;4971037;28;20221;-77
2020/12/20 03:10:08;;;;;;;14.03;10.97;;;6.20;99.90;;;;;;4980018;28;20190;-78
2020/12/20 03:12:35;;;;;;;15.07;11.43;;;6.20;99.90;;;;;;4969880;28;20631;-77
2020/12/20 03:15:02;;;;;;;12.67;10.60;;;6.20;99.90;;;;;;4967471;28;20596;-77
2020/12/20 03:17:31;;;;;;;14.13;10.70;;;6.20;99.90;;;;;;4970936;28;20223;-77
2020/12/20 03:19:58;;;;;;;15.13;11.03;;;6.20;99.90;;;;;;4983961;28;20224;-77
2020/12/20 03:22:24;;;;;;;16.10;11.10;;;6.20;99.90;;;;;;4978163;28;20245;-77
2020/12/20 03:25:03;;;;;;;13.47;11.17;;;6.30;99.90;;;;;;4979837;28;20226;-77
2020/12/20 03:27:41;;;;;;;14.60;11.37;;;6.20;99.90;;;;;;4992529;28;20221;-77
2020/12/20 03:30:24;;;;;;;13.77;11.03;;;6.20;99.90;;;;;;4976330;28;20701;-77
2020/12/20 03:33:00;;;;;;;17.17;11.10;;;6.20;99.90;;;;;;4965080;28;20186;-77
2020/12/20 03:35:42;;;;;;;13.03;10.57;;;6.20;99.90;;;;;;4986649;28;20213;-78
2020/12/20 03:38:10;;;;;;;14.47;10.53;;;6.20;99.90;;;;;;4970340;28;20222;-78
2020/12/20 03:40:42;;;;;;;14.07;10.87;;;6.20;99.90;;;;;;4985964;28;20206;-76
2020/12/20 03:43:08;;;;;;;14.53;10.67;;;6.20;99.90;;;;;;4977697;28;20259;-78
2020/12/20 03:45:44;;;;;;;18.03;11.77;;;6.20;99.90;;;;;;4979830;28;20561;-77
2020/12/20 03:48:12;;;;;;;13.43;10.33;;;6.20;99.90;;;;;;4971541;28;20214;-77
2020/12/20 03:50:39;;;;;;;16.27;11.30;;;6.20;99.90;;;;;;4974006;28;20282;-77
2020/12/20 03:53:06;;;;;;;15.03;11.23;;;6.20;99.90;;;;;;4970727;28;20249;-77
2020/12/20 03:55:43;;;;;;;15.40;11.70;;;6.20;99.90;;;;;;4991966;28;20202;-76
2020/12/20 03:58:10;;;;;;;14.90;10.43;;;6.20;99.90;;;;;;4975350;28;20230;-78
2020/12/20 04:00:36;;;;;;;12.97;10.73;;;6.20;99.90;;;;;;4978335;28;20201;-77
2020/12/20 04:03:14;;;;;;;12.67;9.70;;;6.20;99.90;;;;;;4973748;28;20225;-77
2020/12/20 04:05:43;;;;;;;13.23;10.10;;;6.20;99.90;;;;;;4968366;28;20207;-76
2020/12/20 04:08:10;;;;;;;13.40;10.80;;;6.20;99.90;;;;;;4963333;28;20215;-76
2020/12/20 04:10:38;;;;;;;14.83;10.90;;;6.20;99.90;;;;;;4974906;28;20670;-77
2020/12/20 04:13:08;;;;;;;14.10;11.00;;;6.20;99.90;;;;;;4973626;28;20198;-78
2020/12/20 04:15:37;;;;;;;15.83;10.83;;;6.20;99.90;;;;;;4980203;28;20194;-79
2020/12/20 04:18:06;;;;;;;13.20;10.53;;;6.20;99.90;;;;;;4985341;28;20249;-79
2020/12/20 04:20:34;;;;;;;13.73;10.33;;;6.20;99.90;;;;;;4987880;28;20202;-80
2020/12/20 04:23:02;;;;;;;14.20;10.50;;;6.20;99.90;;;;;;4976669;28;20569;-79
2020/12/20 04:25:35;;;;;;;13.17;10.00;;;6.20;99.90;;;;;;4986989;28;20679;-80
2020/12/20 04:28:28;;;;;;;15.13;10.23;;;6.20;99.90;;;;;;4971910;28;20272;-79
2020/12/20 04:31:05;;;;;;;11.03;9.63;;;6.20;99.90;;;;;;4987644;28;20200;-79
2020/12/20 04:33:32;;;;;;;13.97;10.53;;;6.20;99.90;;;;;;4999448;28;20202;-77
2020/12/20 04:36:08;;;;;;;15.13;11.27;;;6.20;99.90;;;;;;4978407;28;20905;-77
2020/12/20 04:38:35;;;;;;;12.47;10.07;;;6.20;99.90;;;;;;4973694;28;20237;-77
2020/12/20 04:41:02;;;;;;;14.17;9.90;;;6.20;99.90;;;;;;4973869;28;20246;-78
2020/12/20 04:43:29;;;;;;;12.40;9.40;;;6.20;99.90;;;;;;4972025;28;20244;-77
2020/12/20 04:45:58;;;;;;;12.63;10.10;;;6.20;99.90;;;;;;4971053;28;20337;-77
2020/12/20 04:48:40;;;;;;;13.10;10.67;;;6.20;99.90;;;;;;4978089;28;20225;-77
2020/12/20 04:51:09;;;;;;;11.10;9.67;;;6.20;99.90;;;;;;4958691;28;20245;-77
2020/12/20 04:53:35;;;;;;;12.37;9.13;;;6.20;99.90;;;;;;4957175;28;20230;-77
2020/12/20 04:56:06;;;;;;;12.83;8.97;;;6.20;99.90;;;;;;4960800;28;20195;-78
2020/12/20 04:59:00;;;;;;;12.53;11.03;;;6.20;99.90;;;;;;4960164;28;20267;-76
2020/12/20 05:01:32;;;;;;;14.43;10.93;;;6.20;99.90;;;;;;4972170;28;20195;-77
2020/12/20 05:03:58;;;;;;;11.00;9.20;;;6.10;99.90;;;;;;4958754;28;20706;-77
2020/12/20 05:06:27;;;;;;;13.00;10.33;;;6.20;99.90;;;;;;4960277;28;20808;-77
2020/12/20 05:09:02;;;;;;;12.93;10.47;;;6.20;99.90;;;;;;4961244;28;20274;-77
2020/12/20 05:11:36;;;;;;;13.43;10.73;;;6.20;99.90;;;;;;4956879;28;20262;-78
2020/12/20 05:14:06;;;;;;;11.67;9.70;;;6.20;99.90;;;;;;4962434;28;20190;-77
2020/12/20 05:16:38;;;;;;;17.03;10.33;;;6.20;99.90;;;;;;4967504;28;20310;-77
2020/12/20 05:19:16;;;;;;;14.03;10.43;;;6.10;99.90;;;;;;4962381;28;20248;-77
2020/12/20 05:21:48;;;;;;;13.20;10.50;;;6.10;99.90;;;;;;4977227;28;20229;-77
2020/12/20 05:24:25;;;;;;;13.53;10.23;;;6.10;99.90;;;;;;4969244;28;20198;-76
2020/12/20 05:26:52;;;;;;;14.63;9.73;;;6.10;99.90;;;;;;4962873;28;20194;-77
2020/12/20 05:29:26;;;;;;;12.23;9.93;;;6.10;99.90;;;;;;4958299;28;20719;-77
2020/12/20 05:31:52;;;;;;;10.63;8.97;;;6.10;99.90;;;;;;4957237;28;20242;-77
2020/12/20 05:34:39;;;;;;;15.67;10.70;;;6.10;99.90;;;;;;4956530;28;20210;-77
2020/12/20 05:37:08;;;;;;;11.67;10.00;;;6.10;99.90;;;;;;4974030;28;20198;-77
2020/12/20 05:39:55;;;;;;;12.60;9.83;;;6.10;99.90;;;;;;4961835;28;20217;-75
2020/12/20 05:42:53;;;;;;;11.40;9.90;;;6.10;99.90;;;;;;4973116;28;20236;-76
2020/12/20 05:45:24;;;;;;;11.37;9.53;;;6.10;99.90;;;;;;4981672;28;20189;-77
2020/12/20 05:47:56;;;;;;;14.00;10.30;;;6.00;99.90;;;;;;4975078;28;20308;-77
2020/12/20 05:50:27;;;;;;;12.77;10.27;;;6.00;99.90;;;;;;4980111;28;20754;-76
2020/12/20 05:53:02;;;;;;;12.73;9.07;;;6.00;99.90;;;;;;4989518;28;20194;-76
2020/12/20 05:55:38;;;;;;;11.57;9.20;;;6.00;99.90;;;;;;4978767;28;20276;-77
2020/12/20 05:58:13;;;;;;;11.53;9.07;;;6.00;99.90;;;;;;4989253;28;20642;-77
2020/12/20 06:00:41;;;;;;;11.97;9.47;;;6.00;99.90;;;;;;4981119;28;20304;-77
2020/12/20 06:03:08;;;;;;;16.00;11.70;;;6.00;99.90;;;;;;4972569;28;20705;-77
2020/12/20 06:05:36;;;;;;;13.60;10.80;;;6.00;99.90;;;;;;4974747;28;20276;-77
2020/12/20 06:08:05;;;;;;;11.57;9.70;;;5.90;99.90;;;;;;4972653;28;20226;-77
2020/12/20 06:10:41;;;;;;;14.47;10.23;;;6.00;99.90;;;;;;4968499;28;20219;-76
2020/12/20 06:13:11;;;;;;;11.90;9.60;;;5.90;99.90;;;;;;4972161;28;20205;-77
2020/12/20 06:15:40;;;;;;;11.67;9.33;;;6.00;99.90;;;;;;4975055;28;20261;-77
2020/12/20 06:18:11;;;;;;;12.67;9.97;;;5.90;99.90;;;;;;4975791;28;20238;-77
2020/12/20 06:20:50;;;;;;;12.20;10.10;;;5.90;99.90;;;;;;4988002;28;20738;-77
2020/12/20 06:23:19;;;;;;;11.17;9.43;;;5.80;99.90;;;;;;4983419;28;20300;-77
2020/12/20 06:25:47;;;;;;;10.03;8.87;;;5.90;99.90;;;;;;4987352;28;20654;-76
2020/12/20 06:28:19;;;;;;;11.00;9.20;;;5.80;99.90;;;;;;4981324;28;20694;-77
2020/12/20 06:30:47;;;;;;;10.40;9.10;;;5.90;99.90;;;;;;4975238;28;20742;-77
2020/12/20 06:33:20;;;;;;;15.27;10.90;;;5.90;99.90;;;;;;4974874;28;20276;-77
2020/12/20 06:35:50;;;;;;;12.33;10.30;;;5.80;99.90;;;;;;4972423;28;20229;-77
2020/12/20 06:38:24;;;;;;;12.47;9.97;;;5.80;99.90;;;;;;4972289;28;20324;-76
2020/12/20 06:40:51;;;;;;;12.33;9.30;;;5.80;99.90;;;;;;4977294;28;20264;-77
2020/12/20 06:43:29;;;;;;;11.37;9.53;;;5.80;99.90;;;;;;4971684;28;20308;-77
2020/12/20 06:45:56;;;;;;;11.90;10.17;;;5.80;99.90;;;;;;4979582;28;20196;-76
2020/12/20 06:48:31;;;;;;;11.90;9.57;;;5.80;99.90;;;;;;4977781;28;20252;-76
2020/12/20 06:50:58;;;;;;;10.40;8.97;;;5.80;99.90;;;;;;4993256;28;20194;-77
2020/12/20 06:53:52;;;;;;;11.50;8.73;;;5.70;99.90;;;;;;4988235;28;20222;-77
2020/12/20 06:56:20;;;;;;;11.97;9.23;;;5.80;99.90;;;;;;4974143;28;20205;-76
2020/12/20 06:58:47;;;;;;;14.03;10.83;;;5.80;99.90;;;;;;4975814;28;20217;-76
2020/12/20 07:01:35;;;;;;;13.57;9.93;;;5.70;99.90;;;;;;4975422;28;20202;-76
2020/12/20 07:04:02;;;;;;;16.30;14.70;;;5.70;99.90;;;;;;4973074;28;20226;-77
2020/12/20 07:06:29;;;;;;;20.70;19.00;;;5.70;99.90;;;;;;4970496;28;20262;-77
2020/12/20 07:08:57;;;;;;;19.57;17.97;;;5.70;99.90;;;;;;4966855;28;20760;-76
2020/12/20 07:11:25;;;;;;;19.47;17.93;;;5.80;99.90;;;;;;4969238;28;20206;-78
2020/12/20 07:13:54;;;;;;;19.30;17.73;;;5.80;99.90;;;;;;4961980;28;20191;-78
2020/12/20 07:16:22;;;;;;;20.20;18.40;;;5.80;99.90;;;;;;4961291;28;20195;-78
2020/12/20 07:18:58;;;;;;;20.60;18.70;;;5.80;99.90;;;;;;4958108;28;20709;-77
2020/12/20 07:21:44;;;;;;;19.87;18.13;;;5.80;99.90;;;;;;4972450;28;20232;-77
2020/12/20 07:24:21;;;;;;;19.53;17.93;;;5.80;99.90;;;;;;4970735;28;20241;-77
2020/12/20 07:26:48;;;;;;;19.80;18.13;;;5.80;99.90;;;;;;4974376;28;20300;-77
2020/12/20 07:29:15;;;;;;;20.77;18.97;;;5.80;99.90;;;;;;4975956;28;20285;-77
2020/12/20 07:31:42;;;;;;;19.17;17.57;;;5.80;99.90;;;;;;4974609;28;20277;-77
2020/12/20 07:34:09;;;;;;;18.43;16.67;;;5.90;99.90;;;;;;4979700;28;20243;-78
2020/12/20 07:36:38;;;;;;;18.73;17.20;;;5.80;99.90;;;;;;4985078;28;20289;-76
2020/12/20 07:39:05;;;;;;;14.60;10.83;;;5.90;99.90;;;;;;4977290;28;20237;-76
2020/12/20 07:41:32;;;;;;;18.07;16.37;;;5.90;99.90;;;;;;4990874;28;20363;-76
2020/12/20 07:44:03;;;;;;;16.47;14.87;;;6.00;99.90;;;;;;4970417;28;20276;-77
2020/12/20 07:46:29;;;;;;;15.37;11.77;;;6.00;99.90;;;;;;4978143;28;20743;-76
2020/12/20 07:48:55;;;;;;;13.80;10.93;;;6.00;99.90;;;;;;4970555;28;20317;-76
2020/12/20 07:51:24;;;;;;;14.43;10.83;;;6.00;99.90;;;;;;4974586;28;20281;-76
2020/12/20 07:53:52;;;;;;;12.77;10.63;;;6.00;99.90;;;;;;4982568;28;20223;-76
2020/12/20 07:56:22;;;;;;;15.63;14.13;;;6.10;99.90;;;;;;4973262;28;20237;-75
2020/12/20 07:58:49;;;;;;;20.77;18.93;;;6.10;99.90;;;;;;4976171;28;20245;-76
2020/12/20 08:01:15;;;;;;;14.63;11.23;;;6.10;99.90;;;;;;4975990;28;20929;-76
2020/12/20 08:03:42;;;;;;;15.30;13.80;;;6.20;99.90;;;;;;4976067;28;20308;-75
2020/12/20 08:06:09;;;;;;;12.37;11.13;;;6.20;99.90;;;;;;4974226;28;20198;-77
2020/12/20 08:08:36;;;;;;;13.60;10.07;;;6.30;99.90;;;;;;4972614;28;20254;-77
2020/12/20 08:11:04;;;;;;;10.67;9.57;;;6.30;99.90;;;;;;4974860;28;20677;-76
2020/12/20 08:13:32;;;;;;;14.67;13.17;;;6.40;99.90;;;;;;4974506;28;20280;-77
2020/12/20 08:15:58;;;;;;;15.40;10.20;;;6.50;99.90;;;;;;4990824;28;20272;-76
2020/12/20 08:18:25;;;;;;;17.73;15.93;;;6.60;99.90;;;;;;4974700;28;20245;-76
2020/12/20 08:20:52;;;;;;;15.17;12.50;;;6.60;99.90;;;;;;4990457;28;20838;-76
2020/12/20 08:23:21;;;;;;;13.00;10.37;;;6.70;99.90;;;;;;4975898;28;20214;-77
2020/12/20 08:25:48;;;;;;;13.03;9.77;;;6.80;99.90;;;;;;4976064;28;20228;-78
2020/12/20 08:28:15;;;;;;;13.60;9.93;;;6.90;99.90;;;;;;4979957;28;20218;-77
2020/12/20 08:30:41;;;;;;;12.03;10.33;;;7.00;99.90;;;;;;4975736;28;20737;-76
2020/12/20 08:33:08;;;;;;;13.27;10.40;;;7.10;99.90;;;;;;4978883;28;20230;-76
2020/12/20 08:35:34;;;;;;;14.83;9.93;;;7.30;99.90;;;;;;4967875;28;20207;-76
2020/12/20 08:38:01;;;;;;;11.40;9.43;;;7.70;99.90;;;;;;4989808;28;20835;-76
2020/12/20 08:40:31;;;;;;;14.63;13.23;;;8.00;99.90;;;;;;4976471;28;20251;-77
2020/12/20 08:43:00;;;;;;;14.70;12.03;;;8.30;99.90;;;;;;4980711;28;20214;-77
2020/12/20 08:45:28;;;;;;;12.87;11.50;;;8.40;99.90;;;;;;4989662;28;20195;-77
2020/12/20 08:48:04;;;;;;;15.13;13.63;;;8.40;99.90;;;;;;4980997;28;20221;-77
2020/12/20 08:50:31;;;;;;;12.13;10.83;;;8.20;99.90;;;;;;4975568;28;20227;-77
2020/12/20 08:52:59;;;;;;;13.50;10.47;;;8.00;99.90;;;;;;4982147;28;20197;-77
2020/12/20 08:55:25;;;;;;;17.47;15.77;;;7.90;99.90;;;;;;4979914;28;20188;-77
2020/12/20 08:58:02;;;;;;;13.80;11.60;;;7.80;99.90;;;;;;4990182;28;20671;-77
2020/12/20 09:00:28;;;;;;;15.50;13.47;;;7.70;99.90;;;;;;4973098;28;20230;-78
2020/12/20 09:02:59;;;;;;;14.27;10.80;;;7.70;99.90;;;;;;4977486;28;20251;-77
2020/12/20 09:05:27;;;;;;;13.10;11.63;;;7.70;99.90;;;;;;4975468;28;20200;-76
2020/12/20 09:07:55;;;;;;;12.70;10.30;;;7.80;99.90;;;;;;4973507;28;20230;-75
2020/12/20 09:10:25;;;;;;;12.77;11.20;;;7.80;99.90;;;;;;4973312;28;20212;-76
2020/12/20 09:12:53;;;;;;;14.30;12.27;;;7.90;99.90;;;;;;4974378;28;20619;-75
2020/12/20 09:15:23;;;;;;;11.47;10.20;;;7.90;99.90;;;;;;4966808;28;20233;-76
2020/12/20 09:17:51;;;;;;;18.37;16.70;;;7.80;99.90;;;;;;4976438;28;20282;-75
2020/12/20 09:20:20;;;;;;;12.13;9.70;;;7.90;99.90;;;;;;4967782;28;20203;-76
2020/12/20 09:22:55;;;;;;;11.10;8.93;;;7.90;99.90;;;;;;4971638;28;20220;-76
2020/12/20 09:25:36;;;;;;;10.87;9.20;;;8.00;99.90;;;;;;4974159;28;20202;-76
2020/12/20 09:28:05;;;;;;;13.47;12.17;;;8.00;99.90;;;;;;4971300;28;20298;-77
2020/12/20 09:30:38;;;;;;;17.17;15.67;;;8.10;99.90;;;;;;4973965;28;20201;-76
2020/12/20 09:33:19;;;;;;;16.97;15.47;;;8.10;99.90;;;;;;4986405;28;20207;-75
2020/12/20 09:35:57;;;;;;;19.73;17.93;;;8.20;99.90;;;;;;4972574;28;20199;-76
2020/12/20 09:38:26;;;;;;;17.83;16.43;;;8.20;99.90;;;;;;4972479;28;20274;-77
2020/12/20 09:41:00;;;;;;;18.30;16.67;;;8.30;99.90;;;;;;4967341;28;20287;-77
2020/12/20 09:43:27;;;;;;;17.03;15.63;;;8.40;99.90;;;;;;4971782;28;20269;-76
2020/12/20 09:45:56;;;;;;;16.27;15.07;;;8.50;99.90;;;;;;4974915;28;20264;-77
2020/12/20 09:48:22;;;;;;;16.47;15.27;;;8.60;99.90;;;;;;4973075;28;20223;-77
2020/12/20 09:50:49;;;;;;;15.90;14.70;;;8.80;99.90;;;;;;4989144;28;20287;-76
2020/12/20 09:53:15;;;;;;;16.57;15.27;;;8.90;99.90;;;;;;4972283;28;20252;-76
2020/12/20 09:55:42;;;;;;;16.30;15.07;;;8.90;99.90;;;;;;4991585;28;20219;-77
2020/12/20 09:58:10;;;;;;;16.67;15.27;;;9.00;99.90;;;;;;4971543;28;20225;-76
2020/12/20 10:00:37;;;;;;;17.00;15.67;;;9.00;99.90;;;;;;4962471;28;20201;-76
2020/12/20 10:03:04;;;;;;;13.00;11.80;;;9.10;99.90;;;;;;4972754;28;20271;-78
2020/12/20 10:05:31;;;;;;;12.93;11.73;;;9.20;99.90;;;;;;4974964;28;20197;-77
2020/12/20 10:07:57;;;;;;;9.57;8.67;;;9.20;99.90;;;;;;4975691;28;20560;-76
2020/12/20 10:10:24;;;;;;;11.37;9.83;;;9.30;99.90;;;;;;4974431;28;20284;-77
2020/12/20 10:12:51;;;;;;;8.93;7.33;;;9.40;99.90;;;;;;4972719;28;20198;-78
2020/12/20 10:15:18;;;;;;;14.30;13.13;;;9.40;99.90;;;;;;4973818;28;20248;-78
2020/12/20 10:17:45;;;;;;;9.50;8.60;;;9.50;99.90;;;;;;4968093;28;20225;-77
2020/12/20 10:20:12;;;;;;;8.30;7.37;;;9.50;99.90;;;;;;4973421;28;20198;-77
2020/12/20 10:22:39;;;;;;;9.20;7.70;;;9.50;99.90;;;;;;4972718;28;20245;-77
2020/12/20 10:25:06;;;;;;;11.70;10.40;;;9.60;99.90;;;;;;4974113;28;20205;-77
2020/12/20 10:27:32;;;;;;;14.47;13.37;;;9.60;99.90;;;;;;4982815;28;20360;-78
2020/12/20 10:29:59;;;;;;;9.80;8.80;;;9.60;99.90;;;;;;4960880;28;20258;-78
2020/12/20 10:32:25;;;;;;;16.57;15.37;;;9.50;99.90;;;;;;4965569;28;20201;-78
2020/12/20 10:34:52;;;;;;;10.97;9.87;;;9.50;99.90;;;;;;4959647;28;20202;-77
2020/12/20 10:37:19;;;;;;;8.83;7.90;;;9.50;99.90;;;;;;4961919;28;20310;-77
2020/12/20 10:39:45;;;;;;;10.80;8.03;;;9.60;99.90;;;;;;4962161;28;20230;-77
2020/12/20 10:42:13;;;;;;;15.17;13.23;;;9.70;99.90;;;;;;4964521;28;20734;-77
2020/12/20 10:44:40;;;;;;;12.87;11.70;;;9.70;99.90;;;;;;4961350;28;20982;-78
2020/12/20 10:47:06;;;;;;;15.60;14.30;;;9.80;99.90;;;;;;4959744;28;20277;-77
2020/12/20 10:49:33;;;;;;;9.80;7.80;;;9.80;99.90;;;;;;4959634;28;20637;-77
2020/12/20 10:51:59;;;;;;;14.00;12.90;;;9.80;99.90;;;;;;4974305;28;20236;-77
2020/12/20 10:54:29;;;;;;;14.33;13.23;;;9.80;99.90;;;;;;4976127;28;20619;-77
2020/12/20 10:56:58;;;;;;;16.37;15.17;;;9.90;99.90;;;;;;4977705;28;20201;-77
2020/12/20 10:59:25;;;;;;;8.73;7.10;;;9.90;99.90;;;;;;4987409;28;20228;-78
2020/12/20 11:01:51;;;;;;;9.17;7.13;;;9.90;99.90;;;;;;4978353;28;20299;-76
2020/12/20 11:04:17;;;;;;;9.87;7.50;;;9.90;99.90;;;;;;4970708;28;20801;-76
2020/12/20 11:06:43;;;;;;;9.70;6.97;;;9.90;99.90;;;;;;4973565;28;20742;-77
2020/12/20 11:09:10;;;;;;;12.50;11.40;;;9.90;99.90;;;;;;4992074;28;20308;-76
2020/12/20 11:11:37;;;;;;;15.20;13.80;;;10.00;99.90;;;;;;4973601;28;20689;-76
2020/12/20 11:14:04;;;;;;;15.63;14.43;;;10.00;99.90;;;;;;4969506;28;20635;-77
2020/12/20 11:16:30;;;;;;;16.67;15.40;;;10.00;99.90;;;;;;4971897;28;20201;-78
2020/12/20 11:18:57;;;;;;;14.97;13.67;;;10.00;99.90;;;;;;4966291;28;20220;-77
2020/12/20 11:21:23;;;;;;;12.83;11.73;;;10.10;99.90;;;;;;4976113;28;20236;-77
2020/12/20 11:23:49;;;;;;;9.13;8.20;;;10.10;99.90;;;;;;4974135;28;20268;-76
2020/12/20 11:26:18;;;;;;;10.30;7.03;;;10.20;99.90;;;;;;4969657;28;20293;-76
2020/12/20 11:28:47;;;;;;;9.83;8.30;;;10.20;99.90;;;;;;4985784;28;20316;-76
2020/12/20 11:31:15;;;;;;;12.40;11.30;;;10.30;99.90;;;;;;4971685;28;20470;-77
2020/12/20 11:33:41;;;;;;;13.73;12.53;;;10.40;99.90;;;;;;4984663;28;20272;-77
2020/12/20 11:36:08;;;;;;;15.87;14.57;;;10.50;99.90;;;;;;4972924;28;20233;-77
2020/12/20 11:38:35;;;;;;;8.73;7.23;;;10.60;99.90;;;;;;4975799;28;20749;-76
2020/12/20 11:41:02;;;;;;;15.80;14.67;;;10.70;99.90;;;;;;4990838;28;20729;-77
2020/12/20 11:43:28;;;;;;;16.67;15.37;;;10.90;99.90;;;;;;4991858;28;20217;-76
2020/12/20 11:45:55;;;;;;;9.93;8.50;;;10.90;99.90;;;;;;4975868;28;20620;-76
2020/12/20 11:48:22;;;;;;;9.60;8.30;;;10.90;99.90;;;;;;4971886;28;20297;-76
2020/12/20 11:50:48;;;;;;;11.60;10.40;;;10.90;99.90;;;;;;4969276;28;20288;-76
2020/12/20 11:53:14;;;;;;;13.60;12.40;;;10.80;99.90;;;;;;4962136;28;20230;-76
2020/12/20 11:55:41;;;;;;;15.47;14.33;;;10.80;99.90;;;;;;4953363;28;20234;-76
2020/12/20 11:58:11;;;;;;;10.00;8.83;;;10.80;99.90;;;;;;4967122;28;20795;-76
2020/12/20 12:00:40;;;;;;;7.90;7.00;;;10.80;99.90;;;;;;4961601;28;20202;-76
2020/12/20 12:03:08;;;;;;;8.30;7.43;;;10.80;99.90;;;;;;4956880;28;20308;-76
2020/12/20 12:05:35;;;;;;;9.13;8.23;;;10.80;99.90;;;;;;4963930;28;20202;-76
2020/12/20 12:08:01;;;;;;;9.73;8.80;;;10.80;99.90;;;;;;4966351;28;20300;-75
2020/12/20 12:10:27;;;;;;;8.33;7.53;;;11.00;99.90;;;;;;4965548;28;20281;-76
2020/12/20 12:12:54;;;;;;;7.57;6.37;;;11.00;99.90;;;;;;4963604;28;20578;-75
2020/12/20 12:15:20;;;;;;;8.47;7.57;;;11.00;99.90;;;;;;4970188;28;20276;-75
2020/12/20 12:17:46;;;;;;;7.87;5.77;;;11.10;99.90;;;;;;4971784;28;20301;-76
2020/12/20 12:20:14;;;;;;;13.97;12.87;;;11.10;99.90;;;;;;4973818;28;20225;-76
2020/12/20 12:22:41;;;;;;;12.83;11.83;;;11.20;99.90;;;;;;4972992;28;20234;-76
2020/12/20 12:25:08;;;;;;;10.43;9.50;;;11.30;99.90;;;;;;4981303;28;20670;-76
2020/12/20 12:27:34;;;;;;;14.17;13.17;;;11.30;99.90;;;;;;4973300;28;20256;-76
2020/12/20 12:30:01;;;;;;;8.27;7.30;;;11.40;99.90;;;;;;4984164;28;20198;-76
2020/12/20 12:32:30;;;;;;;15.33;14.13;;;11.40;99.90;;;;;;4971855;28;20249;-76
2020/12/20 12:34:57;;;;;;;15.10;14.00;;;11.40;99.90;;;;;;4975779;28;20678;-77
2020/12/20 12:37:24;;;;;;;9.83;8.93;;;11.40;99.90;;;;;;4952600;28;603332;-77
2020/12/20 12:39:51;;;;;;;15.60;14.47;;;11.40;99.90;;;;;;4976239;28;20589;-77
2020/12/20 12:42:17;;;;;;;11.60;10.60;;;11.50;99.90;;;;;;4974527;28;20885;-77
2020/12/20 12:44:44;;;;;;;9.03;8.23;;;11.40;99.90;;;;;;4976107;28;20972;-77
2020/12/20 12:47:10;;;;;;;15.60;14.50;;;11.50;99.90;;;;;;4975541;28;20208;-77
2020/12/20 12:49:37;;;;;;;9.40;8.60;;;11.50;99.90;;;;;;4985093;28;20234;-77